createdAt,value
2022-08-17T00:01:02.676Z,100816.19
2022-08-17T00:03:41.261Z,100754.91
2022-08-17T00:06:37.161Z,100835.25
2022-08-17T00:09:11.095Z,100816.56
2022-08-17T00:12:40.944Z,100844.00
2022-08-17T00:14:45.652Z,100856.44
2022-08-17T00:17:18.948Z,100853.53
2022-08-17T00:19:51.825Z,100856.03
2022-08-17T00:22:31.088Z,100864.13
2022-08-17T00:25:13.633Z,100871.81
2022-08-17T00:27:46.339Z,100863.09
2022-08-17T00:30:19.071Z,100853.56
2022-08-17T00:33:14.623Z,100884.31
2022-08-17T00:35:44.919Z,100880.53
2022-08-17T00:38:18.312Z,100888.84
2022-08-17T00:40:58.979Z,100901.31
2022-08-17T00:43:59.272Z,100890.97
2022-08-17T00:46:34.877Z,100885.13
2022-08-17T00:49:09.368Z,100906.53
2022-08-17T00:52:00.478Z,100893.88
2022-08-17T00:54:41.902Z,100796.22
2022-08-17T00:57:23.019Z,100900.09
2022-08-17T01:00:02.355Z,100841.53
2022-08-17T01:02:42.265Z,100871.41
2022-08-17T01:05:27.731Z,100799.13
2022-08-17T01:08:03.140Z,100809.09
2022-08-17T01:10:58.443Z,100835.06
2022-08-17T01:13:41.859Z,100909.84
2022-08-17T01:16:35.035Z,100903.41
2022-08-17T01:19:21.703Z,100747.03
2022-08-17T01:22:08.336Z,100891.72
2022-08-17T01:24:46.361Z,100885.28
2022-08-17T01:27:20.552Z,100890.88
2022-08-17T01:29:59.336Z,100784.16
2022-08-17T01:32:32.351Z,100889.59
2022-08-17T01:35:06.266Z,100889.59
2022-08-17T01:37:42.329Z,100780.34
2022-08-17T01:40:34.420Z,100795.31
2022-08-17T01:43:36.358Z,100878.34
2022-08-17T01:46:09.480Z,100883.06
2022-08-17T01:48:42.759Z,100877.84
2022-08-17T01:51:17.236Z,100879.09
2022-08-17T01:53:54.577Z,100756.81
2022-08-17T01:56:30.620Z,100764.28
2022-08-17T01:59:04.107Z,100867.47
2022-08-17T02:01:38.487Z,100871.19
2022-08-17T02:04:12.026Z,100866.63
2022-08-17T02:06:54.148Z,100854.19
2022-08-17T02:09:29.526Z,100877.47
2022-08-17T02:12:37.811Z,100794.25
2022-08-17T02:14:57.817Z,100830.56
2022-08-17T02:17:30.538Z,100881.19
2022-08-17T02:20:03.297Z,100888.22
2022-08-17T02:22:37.669Z,100871.59
2022-08-17T02:25:13.771Z,100877.00
2022-08-17T02:27:46.383Z,100858.47
2022-08-17T02:30:59.242Z,100792.72
2022-08-17T02:33:13.215Z,100867.38
2022-08-17T02:35:45.930Z,100873.63
2022-08-17T02:38:18.889Z,100865.28
2022-08-17T02:40:51.717Z,100862.34
2022-08-17T02:43:24.329Z,100847.34
2022-08-17T02:45:57.732Z,100856.06
2022-08-17T02:48:31.149Z,100848.56
2022-08-17T02:51:04.412Z,100853.97
2022-08-17T02:53:37.551Z,100849.81
2022-08-17T02:56:10.421Z,100787.50
2022-08-17T02:58:43.482Z,100843.94
2022-08-17T03:01:16.238Z,100779.59
2022-08-17T03:03:49.403Z,100811.91
2022-08-17T03:06:21.936Z,100807.69
2022-08-17T03:08:54.716Z,100807.69
2022-08-17T03:11:27.341Z,100821.97
2022-08-17T03:14:00.617Z,100794.78
2022-08-17T03:16:33.073Z,100808.22
2022-08-17T03:19:06.024Z,100810.06
2022-08-17T03:21:38.862Z,100816.72
2022-08-17T03:24:11.333Z,100819.44
2022-08-17T03:26:44.346Z,100746.50
2022-08-17T03:29:20.381Z,100814.00
2022-08-17T03:31:53.815Z,100805.72
2022-08-17T03:34:26.421Z,100804.63
2022-08-17T03:36:59.143Z,100807.53
2022-08-17T03:39:31.795Z,100805.41
2022-08-17T03:42:31.422Z,100812.03
2022-08-17T03:45:05.123Z,100636.53
2022-08-17T03:47:56.206Z,100796.41
2022-08-17T03:50:47.486Z,100778.97
2022-08-17T03:53:38.655Z,100809.50
2022-08-17T03:56:29.634Z,100807.84
2022-08-17T03:59:02.091Z,100819.91
2022-08-17T04:01:35.136Z,100818.00
2022-08-17T04:04:09.792Z,100821.66
2022-08-17T04:06:43.655Z,100783.41
2022-08-17T04:09:16.798Z,100822.00
2022-08-17T04:11:49.794Z,100802.53
2022-08-17T04:14:23.081Z,100819.53
2022-08-17T04:16:55.624Z,100812.22
2022-08-17T04:19:28.082Z,100807.84
2022-08-17T04:22:01.086Z,100806.56
2022-08-17T04:24:34.977Z,100794.13
2022-08-17T04:27:07.597Z,100804.69
2022-08-17T04:29:54.449Z,100788.66
2022-08-17T04:33:00.516Z,100754.59
2022-08-17T04:35:24.248Z,100805.28
2022-08-17T04:37:57.018Z,100787.75
2022-08-17T04:40:48.537Z,100779.19
2022-08-17T04:43:24.317Z,100678.66
2022-08-17T04:46:00.425Z,100681.19
2022-08-17T04:48:37.369Z,100777.31
2022-08-17T04:51:20.412Z,100786.81
2022-08-17T04:53:56.011Z,100744.50
2022-08-17T04:56:30.358Z,100761.22
2022-08-17T04:59:06.698Z,100754.75
2022-08-17T05:01:41.489Z,100751.06
2022-08-17T05:04:21.466Z,100645.41
2022-08-17T05:07:06.235Z,100744.22
2022-08-17T05:09:38.772Z,100686.41
2022-08-17T05:12:11.365Z,100750.91
2022-08-17T05:14:43.992Z,100734.41
2022-08-17T05:17:17.063Z,100727.56
2022-08-17T05:19:51.947Z,100690.88
2022-08-17T05:22:24.839Z,100713.66
2022-08-17T05:24:57.398Z,100709.88
2022-08-17T05:27:34.426Z,100710.56
2022-08-17T05:30:09.461Z,100689.56
2022-08-17T05:32:42.058Z,100700.34
2022-08-17T05:35:14.753Z,100697.03
2022-08-17T05:37:48.116Z,100690.53
2022-08-17T05:40:22.244Z,100676.19
2022-08-17T05:43:16.120Z,100665.91
2022-08-17T05:45:57.277Z,100590.53
2022-08-17T05:48:35.727Z,100663.69
2022-08-17T05:51:30.422Z,100656.59
2022-08-17T05:54:18.288Z,100645.41
2022-08-17T05:57:15.550Z,100629.06
2022-08-17T05:59:51.757Z,100631.50
2022-08-17T06:02:24.459Z,100628.78
2022-08-17T06:05:11.993Z,100617.00
2022-08-17T06:07:50.387Z,100527.78
2022-08-17T06:10:44.822Z,100615.53
2022-08-17T06:13:47.606Z,100610.69
2022-08-17T06:16:34.183Z,100482.53
2022-08-17T06:19:26.329Z,100590.53
2022-08-17T06:22:00.112Z,100595.50
2022-08-17T06:25:04.782Z,100587.16
2022-08-17T06:27:45.313Z,100599.28
2022-08-17T06:30:29.094Z,100604.69
2022-08-17T06:33:31.801Z,100583.09
2022-08-17T06:36:30.776Z,100487.13
2022-08-17T06:39:44.748Z,100419.38
2022-08-17T06:43:04.073Z,100595.19
2022-08-17T06:45:40.807Z,100583.31
2022-08-17T06:48:25.861Z,100561.66
2022-08-17T06:51:20.072Z,100579.09
2022-08-17T06:54:02.121Z,100581.66
2022-08-17T06:57:01.396Z,100588.13
2022-08-17T06:59:55.109Z,100575.66
2022-08-17T07:02:52.317Z,100575.06
2022-08-17T07:05:42.870Z,100569.84
2022-08-17T07:08:16.049Z,100571.44
2022-08-17T07:11:03.902Z,100576.03
2022-08-17T07:13:51.167Z,100598.75
2022-08-17T07:16:37.821Z,100591.22
2022-08-17T07:19:11.660Z,100529.47
2022-08-17T07:21:49.751Z,100575.97
2022-08-17T07:24:52.875Z,100582.84
2022-08-17T07:27:40.186Z,100417.09
2022-08-17T07:30:20.825Z,100571.88
2022-08-17T07:32:58.734Z,100563.97
2022-08-17T07:35:40.756Z,100568.22
2022-08-17T07:38:31.947Z,100543.47
2022-08-17T07:41:08.992Z,100555.34
2022-08-17T07:43:44.332Z,100566.78
2022-08-17T07:46:38.041Z,100507.81
2022-08-17T07:49:16.437Z,100550.63
2022-08-17T07:51:51.923Z,100562.28
2022-08-17T07:54:42.056Z,100479.75
2022-08-17T07:57:14.496Z,100555.09
2022-08-17T08:00:18.097Z,100553.38
2022-08-17T08:03:05.485Z,100465.38
2022-08-17T08:05:51.239Z,100532.94
2022-08-17T08:08:35.089Z,100456.16
2022-08-17T08:11:33.247Z,100532.78
2022-08-17T08:14:39.671Z,100526.59
2022-08-17T08:17:12.965Z,100528.75
2022-08-17T08:19:46.003Z,100458.66
2022-08-17T08:22:30.259Z,100437.91
2022-08-17T08:25:06.771Z,100528.72
2022-08-17T08:27:45.662Z,100526.09
2022-08-17T08:30:23.290Z,100497.63
2022-08-17T08:33:43.116Z,100511.75
2022-08-17T08:37:14.337Z,100457.31
2022-08-17T08:40:27.799Z,100520.28
2022-08-17T08:43:23.775Z,100512.22
2022-08-17T08:46:11.519Z,100516.97
2022-08-17T08:48:56.895Z,100508.47
2022-08-17T08:51:54.578Z,100467.56
2022-08-17T08:54:37.914Z,100501.72
2022-08-17T08:57:26.733Z,100509.13
2022-08-17T09:00:16.219Z,100470.19
2022-08-17T09:03:15.919Z,100497.84
2022-08-17T09:06:33.496Z,100502.06
2022-08-17T09:09:20.791Z,100512.91
2022-08-17T09:12:06.403Z,100461.94
2022-08-17T09:15:20.333Z,100490.94
2022-08-17T09:19:03.191Z,100494.63
2022-08-17T09:21:35.237Z,100495.00
2022-08-17T09:24:25.487Z,100500.19
2022-08-17T09:27:04.294Z,100496.09
2022-08-17T09:29:41.589Z,100498.09
2022-08-17T09:32:30.115Z,100396.63
2022-08-17T09:35:14.583Z,100499.06
2022-08-17T09:37:53.007Z,100525.66
2022-08-17T09:40:27.861Z,100523.09
2022-08-17T09:43:15.336Z,100522.00
2022-08-17T09:45:55.734Z,100536.03
2022-08-17T09:48:56.791Z,100536.91
2022-08-17T09:51:58.616Z,100540.28
2022-08-17T09:54:41.105Z,100519.28
2022-08-17T09:57:39.242Z,100545.91
2022-08-17T10:00:25.197Z,100551.13
2022-08-17T10:03:04.441Z,100555.00
2022-08-17T10:06:09.777Z,100555.81
2022-08-17T10:08:54.488Z,100552.78
2022-08-17T10:12:03.513Z,100547.00
2022-08-17T10:15:00.148Z,100548.09
2022-08-17T10:18:17.355Z,100551.13
2022-08-17T10:21:26.256Z,100443.16
2022-08-17T10:25:21.025Z,100541.22
2022-08-17T10:27:59.496Z,100531.56
2022-08-17T10:30:36.326Z,100542.19
2022-08-17T10:33:19.524Z,100528.03
2022-08-17T10:36:05.334Z,100545.84
2022-08-17T10:39:01.330Z,100458.38
2022-08-17T10:41:49.073Z,100537.72
2022-08-17T10:44:43.847Z,100548.56
2022-08-17T10:47:21.403Z,100561.75
2022-08-17T10:49:57.393Z,100524.09
2022-08-17T10:52:32.934Z,100555.88
2022-08-17T10:55:16.311Z,100515.41
2022-08-17T10:57:51.819Z,100539.91
2022-08-17T11:00:29.115Z,100557.16
2022-08-17T11:03:02.531Z,100566.72
2022-08-17T11:06:01.836Z,100586.50
2022-08-17T11:09:13.062Z,100567.63
2022-08-17T11:12:00.140Z,100574.47
2022-08-17T11:15:02.583Z,100568.56
2022-08-17T11:17:51.763Z,100487.16
2022-08-17T11:20:36.451Z,100564.97
2022-08-17T11:23:46.467Z,100559.28
2022-08-17T11:26:50.210Z,100554.72
2022-08-17T11:29:31.636Z,100473.09
2022-08-17T11:32:11.186Z,100521.78
2022-08-17T11:34:45.948Z,100564.50
2022-08-17T11:37:33.619Z,100563.94
2022-08-17T11:40:27.459Z,100573.13
2022-08-17T11:43:12.890Z,100574.91
2022-08-17T11:45:59.367Z,100579.38
2022-08-17T11:49:28.021Z,100588.13
2022-08-17T11:52:03.276Z,100591.78
2022-08-17T11:54:40.607Z,100483.81
2022-08-17T11:57:28.527Z,100586.69
2022-08-17T12:00:12.589Z,100585.31
2022-08-17T12:02:48.633Z,100592.16
2022-08-17T12:05:28.583Z,100594.28
2022-08-17T12:08:13.478Z,100569.72
2022-08-17T12:11:58.789Z,100606.63
2022-08-17T12:15:05.666Z,100609.72
2022-08-17T12:17:40.092Z,100444.97
2022-08-17T12:20:32.739Z,100568.16
2022-08-17T12:23:23.076Z,100610.56
2022-08-17T12:26:10.397Z,100626.34
2022-08-17T12:28:49.430Z,100604.06
2022-08-17T12:31:30.240Z,100640.53
2022-08-17T12:34:05.744Z,100576.28
2022-08-17T12:36:42.808Z,100637.81
2022-08-17T12:39:22.032Z,100650.53
2022-08-17T12:42:02.386Z,100649.06
2022-08-17T12:44:40.484Z,100568.47
2022-08-17T12:47:23.776Z,100665.97
2022-08-17T12:50:05.636Z,100676.66
2022-08-17T12:52:42.518Z,100677.91
2022-08-17T12:55:26.242Z,100581.22
2022-08-17T12:58:05.325Z,100681.25
2022-08-17T13:00:47.266Z,100606.13
2022-08-17T13:03:24.136Z,100704.31
2022-08-17T13:06:00.836Z,100726.50
2022-08-17T13:08:37.998Z,100740.00
2022-08-17T13:11:25.557Z,100737.59
2022-08-17T13:14:09.949Z,100733.00
2022-08-17T13:16:42.528Z,100749.00
2022-08-17T13:19:17.998Z,100755.03
2022-08-17T13:22:04.057Z,100756.06
2022-08-17T13:24:38.247Z,100733.13
2022-08-17T13:27:16.834Z,100728.41
2022-08-17T13:29:55.114Z,100750.19
2022-08-17T13:32:44.989Z,100756.06
2022-08-17T13:35:41.928Z,100762.19
2022-08-17T13:38:39.092Z,100771.03
2022-08-17T13:41:35.296Z,100770.41
2022-08-17T13:44:40.744Z,100767.72
2022-08-17T13:47:21.949Z,100672.78
2022-08-17T13:49:56.763Z,100749.03
2022-08-17T13:52:41.416Z,100772.75
2022-08-17T13:55:24.190Z,100771.44
2022-08-17T13:58:03.888Z,100778.16
2022-08-17T14:00:41.000Z,100783.94
2022-08-17T14:03:13.513Z,100784.41
2022-08-17T14:05:47.486Z,100794.41
2022-08-17T14:08:22.403Z,100790.63
2022-08-17T14:11:00.181Z,100798.38
2022-08-17T14:13:33.628Z,100800.47
2022-08-17T14:16:06.442Z,100805.69
2022-08-17T14:18:56.155Z,100798.03
2022-08-17T14:21:29.958Z,100797.06
2022-08-17T14:24:02.645Z,100803.31
2022-08-17T14:26:35.851Z,100789.63
2022-08-17T14:29:15.122Z,100799.38
2022-08-17T14:31:54.407Z,100809.41
2022-08-17T14:34:27.931Z,100809.84
2022-08-17T14:37:01.004Z,100813.41
2022-08-17T14:39:34.282Z,100820.91
2022-08-17T14:42:07.103Z,100809.56
2022-08-17T14:44:41.225Z,100659.16
2022-08-17T14:47:17.225Z,100831.63
2022-08-17T14:49:50.733Z,100832.66
2022-08-17T14:52:23.511Z,100845.97
2022-08-17T14:54:56.304Z,100815.25
2022-08-17T14:57:34.118Z,100845.56
2022-08-17T15:00:08.803Z,100843.31
2022-08-17T15:02:56.906Z,100839.16
2022-08-17T15:05:35.996Z,100835.16
2022-08-17T15:08:09.279Z,100840.09
2022-08-17T15:10:41.811Z,100842.63
2022-08-17T15:13:25.816Z,100851.34
2022-08-17T15:16:00.628Z,100851.31
2022-08-17T15:18:33.491Z,100857.13
2022-08-17T15:21:07.362Z,100856.75
2022-08-17T15:23:41.292Z,100756.91
2022-08-17T15:26:16.057Z,100838.88
2022-08-17T15:28:54.234Z,100845.50
2022-08-17T15:31:31.953Z,100835.13
2022-08-17T15:34:07.939Z,100839.69
2022-08-17T15:36:49.194Z,100799.44
2022-08-17T15:39:22.011Z,100835.97
2022-08-17T15:41:58.683Z,100850.13
2022-08-17T15:44:34.883Z,100846.34
2022-08-17T15:47:07.866Z,100841.19
2022-08-17T15:49:42.601Z,100804.00
2022-08-17T15:52:26.908Z,100825.41
2022-08-17T15:55:01.933Z,100790.28
2022-08-17T15:57:35.239Z,100829.34
2022-08-17T16:00:11.074Z,100828.53
2022-08-17T16:03:15.106Z,100824.34
2022-08-17T16:05:40.865Z,100788.63
2022-08-17T16:08:17.090Z,100807.72
2022-08-17T16:10:52.967Z,100799.41
2022-08-17T16:13:25.533Z,100802.75
2022-08-17T16:15:59.531Z,100811.50
2022-08-17T16:18:33.005Z,100806.09
2022-08-17T16:21:28.157Z,100774.28
2022-08-17T16:24:13.686Z,100718.13
2022-08-17T16:26:47.584Z,100802.75
2022-08-17T16:29:20.758Z,100819.41
2022-08-17T16:31:53.905Z,100812.34
2022-08-17T16:34:26.797Z,100786.59
2022-08-17T16:36:59.409Z,100802.34
2022-08-17T16:39:32.799Z,100816.28
2022-08-17T16:42:06.733Z,100782.03
2022-08-17T16:44:39.272Z,100807.75
2022-08-17T16:47:12.043Z,100798.19
2022-08-17T16:49:45.030Z,100782.41
2022-08-17T16:52:32.153Z,100815.84
2022-08-17T16:55:07.836Z,100807.16
2022-08-17T16:57:47.432Z,100802.34
2022-08-17T17:00:23.647Z,100797.34
2022-08-17T17:02:57.335Z,100792.78
2022-08-17T17:05:57.679Z,100713.34
2022-08-17T17:08:49.874Z,100708.75
2022-08-17T17:11:28.606Z,100778.75
2022-08-17T17:14:04.036Z,100670.81
2022-08-17T17:16:47.191Z,100738.66
2022-08-17T17:19:26.317Z,100771.00
2022-08-17T17:22:22.232Z,100669.53
2022-08-17T17:25:16.378Z,100774.13
2022-08-17T17:28:09.563Z,100782.44
2022-08-17T17:31:15.977Z,100781.66
2022-08-17T17:33:58.406Z,100767.91
2022-08-17T17:36:47.098Z,100772.88
2022-08-17T17:39:22.446Z,100769.53
2022-08-17T17:42:01.434Z,100765.41
2022-08-17T17:44:40.691Z,100738.88
2022-08-17T17:47:14.560Z,100786.19
2022-08-17T17:49:52.607Z,100679.50
2022-08-17T17:53:06.083Z,100762.34
2022-08-17T17:55:50.957Z,100754.00
2022-08-17T17:58:46.666Z,100757.75
2022-08-17T18:01:51.401Z,100744.25
2022-08-17T18:04:26.302Z,100637.63
2022-08-17T18:07:14.415Z,100730.53
2022-08-17T18:10:19.421Z,100723.69
2022-08-17T18:13:09.852Z,100536.44
2022-08-17T18:15:55.863Z,100638.44
2022-08-17T18:18:49.466Z,100672.44
2022-08-17T18:21:30.830Z,100584.94
2022-08-17T18:24:07.310Z,100578.50
2022-08-17T18:26:44.937Z,100696.03
2022-08-17T18:29:44.757Z,100688.84
2022-08-17T18:32:31.088Z,100691.50
2022-08-17T18:35:15.809Z,100688.59
2022-08-17T18:37:51.777Z,100585.31
2022-08-17T18:40:35.915Z,100577.25
2022-08-17T18:43:53.343Z,100691.31
2022-08-17T18:46:38.205Z,100688.81
2022-08-17T18:49:28.758Z,100549.47
2022-08-17T18:52:18.092Z,100688.59
2022-08-17T18:55:16.408Z,100691.13
2022-08-17T18:57:53.701Z,100695.66
2022-08-17T19:00:32.433Z,100688.56
2022-08-17T19:03:23.910Z,100676.13
2022-08-17T19:06:28.465Z,100643.19
2022-08-17T19:09:02.718Z,100641.09
2022-08-17T19:11:37.359Z,100681.97
2022-08-17T19:14:13.992Z,100550.06
2022-08-17T19:16:53.310Z,100677.59
2022-08-17T19:19:54.434Z,100670.75
2022-08-17T19:22:45.485Z,100670.13
2022-08-17T19:25:25.041Z,100669.09
2022-08-17T19:28:22.121Z,100663.69
2022-08-17T19:31:05.962Z,100550.47
2022-08-17T19:33:39.121Z,100656.22
2022-08-17T19:36:39.948Z,100660.00
2022-08-17T19:39:17.806Z,100649.97
2022-08-17T19:42:05.716Z,100660.38
2022-08-17T19:44:44.687Z,100651.22
2022-08-17T19:47:50.909Z,100636.28
2022-08-17T19:50:31.804Z,100641.69
2022-08-17T19:53:13.039Z,100639.03
2022-08-17T19:56:22.072Z,100638.19
2022-08-17T19:59:23.427Z,100642.97
2022-08-17T20:02:04.418Z,100631.50
2022-08-17T20:04:45.045Z,100631.75
2022-08-17T20:07:32.176Z,100643.16
2022-08-17T20:10:13.474Z,100625.09
2022-08-17T20:12:47.706Z,100643.38
2022-08-17T20:15:31.037Z,100635.06
2022-08-17T20:18:10.935Z,100513.19
2022-08-17T20:20:43.800Z,100633.81
2022-08-17T20:23:31.916Z,100637.16
2022-08-17T20:26:18.521Z,100640.03
2022-08-17T20:29:06.972Z,100642.56
2022-08-17T20:31:45.905Z,100639.66
2022-08-17T20:34:30.875Z,100637.56
2022-08-17T20:37:30.359Z,100540.78
2022-08-17T20:40:02.907Z,100643.38
2022-08-17T20:42:36.729Z,100655.22
2022-08-17T20:45:27.592Z,100645.28
2022-08-17T20:48:36.913Z,100642.78
2022-08-17T20:51:40.784Z,100646.31
2022-08-17T20:54:19.617Z,100640.28
2022-08-17T20:56:57.863Z,100637.56
2022-08-17T20:59:32.177Z,100641.94
2022-08-17T21:02:19.062Z,100641.31
2022-08-17T21:04:55.742Z,100652.94
2022-08-17T21:07:33.160Z,100641.31
2022-08-17T21:10:23.590Z,100514.66
2022-08-17T21:13:01.177Z,100627.19
2022-08-17T21:16:00.557Z,100496.66
2022-08-17T21:18:57.325Z,100643.63
2022-08-17T21:21:54.591Z,100650.09
2022-08-17T21:24:53.799Z,100642.19
2022-08-17T21:27:35.565Z,100642.59
2022-08-17T21:30:09.505Z,100649.22
2022-08-17T21:32:45.747Z,100456.00
2022-08-17T21:35:48.047Z,100663.78
2022-08-17T21:38:24.970Z,100468.22
2022-08-17T21:40:57.557Z,100668.16
2022-08-17T21:43:34.746Z,100660.03
2022-08-17T21:46:24.870Z,100677.06
2022-08-17T21:49:04.428Z,100683.09
2022-08-17T21:51:58.547Z,100589.94
2022-08-17T21:54:43.980Z,100688.28
2022-08-17T21:57:28.853Z,100580.63
2022-08-17T22:00:05.465Z,100576.06
2022-08-17T22:02:39.966Z,100598.22
2022-08-17T22:05:18.033Z,100575.44
2022-08-17T22:08:01.404Z,100604.03
2022-08-17T22:10:36.724Z,100682.91
2022-08-17T22:13:16.444Z,100682.91
2022-08-17T22:16:28.073Z,100683.69
2022-08-17T22:19:02.101Z,100678.53
2022-08-17T22:21:34.851Z,100672.94
2022-08-17T22:24:21.788Z,100687.06
2022-08-17T22:27:11.785Z,100643.84
2022-08-17T22:29:57.500Z,100682.91
2022-08-17T22:32:35.830Z,100693.72
2022-08-17T22:35:34.032Z,100692.84
2022-08-17T22:38:39.591Z,100691.59
2022-08-17T22:41:18.980Z,100701.16
2022-08-17T22:43:52.901Z,100689.53
2022-08-17T22:46:27.686Z,100710.66
2022-08-17T22:49:01.851Z,100694.50
2022-08-17T22:51:34.589Z,100712.53
2022-08-17T22:54:37.857Z,100707.34
2022-08-17T22:57:34.651Z,100718.13
2022-08-17T23:00:27.495Z,100714.44
2022-08-17T23:03:19.995Z,100718.97
2022-08-17T23:06:08.167Z,100721.88
2022-08-17T23:08:52.798Z,100634.75
2022-08-17T23:11:43.007Z,100711.09
2022-08-17T23:14:23.872Z,100632.44
2022-08-17T23:16:56.640Z,100713.97
2022-08-17T23:19:32.842Z,100715.22
2022-08-17T23:22:09.974Z,100692.78
2022-08-17T23:24:51.861Z,100713.72
2022-08-17T23:27:29.113Z,100716.84
2022-08-17T23:30:02.545Z,100710.34
2022-08-17T23:32:38.037Z,100714.69
2022-08-17T23:35:39.317Z,100723.81
2022-08-17T23:38:15.283Z,100708.03
2022-08-17T23:40:48.191Z,100721.88
2022-08-17T23:43:24.180Z,100724.53
2022-08-17T23:46:01.099Z,100727.38
2022-08-17T23:48:35.552Z,100727.94
2022-08-17T23:51:20.972Z,100731.91
2022-08-17T23:54:07.338Z,100724.78
2022-08-17T23:56:48.325Z,100701.31
2022-08-17T23:59:23.995Z,100666.69
